Time;durP1;ratioP1;P1;durP2;ratioP2;P2;SDS_P1;SDS_P2;PMS_P1;PMS_P2;Temp;Humidity;BMP_temperature;BMP_pressure;BME280_temperature;BME280_humidity;BME280_pressure;Samples;Min_cycle;Max_cycle;Signal;HPM_P1;HPM_P2
2022/06/06 00:02:18;;;;;;;;;;;;;;;18.43;77.40;100115.69;10390591;28;19928;-63
2022/06/06 00:07:20;;;;;;;;;;;;;;;18.45;77.08;100118.19;10391705;28;19929;-63
2022/06/06 00:12:23;;;;;;;;;;;;;;;18.35;77.91;100118.44;10389687;28;20485;-63
2022/06/06 00:17:24;;;;;;;;;;;;;;;18.38;78.17;100097.34;10390276;28;20016;-63
2022/06/06 00:22:25;;;;;;;;;;;;;;;18.41;78.34;100096.16;10389142;28;19935;-63
2022/06/06 00:27:26;;;;;;;;;;;;;;;18.35;78.42;100094.19;10400839;28;19950;-63
2022/06/06 00:37:48;;;;;;;;;;;;;;;18.28;78.74;100095.91;10396290;28;19933;-62
2022/06/06 00:42:49;;;;;;;;;;;;;;;18.22;79.36;100102.84;10394790;28;19936;-63
2022/06/06 00:48:19;;;;;;;;;;;;;;;18.20;79.54;100100.31;10393299;28;19936;-62
2022/06/06 00:53:26;;;;;;;;;;;;;;;18.20;79.77;100089.53;10398987;28;19932;-62
2022/06/06 00:58:29;;;;;;;;;;;;;;;18.14;80.61;100084.88;10401018;28;19929;-62
2022/06/06 01:03:31;;;;;;;;;;;;;;;18.14;80.66;100084.03;10400925;28;20019;-62
2022/06/06 01:08:34;;;;;;;;;;;;;;;18.12;81.00;100091.44;10405681;28;19976;-64
2022/06/06 01:13:38;;;;;;;;;;;;;;;18.11;81.39;100081.69;10398922;28;19928;-63
2022/06/06 01:18:54;;;;;;;;;;;;;;;18.08;81.32;100079.38;10402070;28;20562;-64
2022/06/06 01:24:15;;;;;;;;;;;;;;;18.05;81.82;100068.94;10397457;28;20555;-63
2022/06/06 01:29:20;;;;;;;;;;;;;;;18.01;82.27;100071.13;10393281;28;19931;-64
2022/06/06 01:34:23;;;;;;;;;;;;;;;17.95;82.46;100074.53;10396540;28;20379;-63
2022/06/06 01:39:27;;;;;;;;;;;;;;;17.86;83.51;100065.63;10393722;28;19933;-63
2022/06/06 01:44:31;;;;;;;;;;;;;;;17.77;83.82;100062.13;10395193;28;19964;-64
2022/06/06 01:49:33;;;;;;;;;;;;;;;17.79;83.96;100059.25;10394930;28;19935;-63
2022/06/06 01:54:35;;;;;;;;;;;;;;;17.72;84.41;100063.69;10397387;28;20433;-65
2022/06/06 01:59:36;;;;;;;;;;;;;;;17.72;84.25;100059.13;10399414;28;20424;-63
2022/06/06 02:04:37;;;;;;;;;;;;;;;17.75;84.08;100066.03;10410435;28;19989;-63
2022/06/06 02:09:39;;;;;;;;;;;;;;;17.65;84.79;100075.16;10418421;28;19922;-66
2022/06/06 02:14:41;;;;;;;;;;;;;;;17.49;86.29;100078.72;10399521;28;20011;-63
2022/06/06 02:19:43;;;;;;;;;;;;;;;17.54;85.85;100082.75;10394946;28;19929;-64
2022/06/06 02:24:44;;;;;;;;;;;;;;;17.52;86.16;100074.00;10395260;28;19935;-63
2022/06/06 02:29:45;;;;;;;;;;;;;;;17.52;86.08;100084.75;10394677;28;19939;-63
2022/06/06 02:34:47;;;;;;;;;;;;;;;17.47;86.41;100087.97;10393792;28;19929;-63
2022/06/06 02:39:48;;;;;;;;;;;;;;;17.46;86.08;100089.00;10394234;28;19933;-63
2022/06/06 02:44:49;;;;;;;;;;;;;;;17.36;86.52;100081.13;10394918;28;19929;-64
2022/06/06 02:49:51;;;;;;;;;;;;;;;17.38;86.59;100084.47;10392237;28;20024;-62
2022/06/06 02:54:52;;;;;;;;;;;;;;;17.31;87.22;100089.72;10399477;28;19925;-62
2022/06/06 02:59:55;;;;;;;;;;;;;;;17.24;87.59;100098.63;10406356;28;20012;-63
2022/06/06 03:04:56;;;;;;;;;;;;;;;17.23;88.22;100103.16;10402670;28;19929;-63
2022/06/06 03:10:07;;;;;;;;;;;;;;;17.26;87.72;100107.38;10395387;28;20665;-63
2022/06/06 03:15:20;;;;;;;;;;;;;;;17.25;88.20;100105.66;10399866;28;19929;-63
2022/06/06 03:20:48;;;;;;;;;;;;;;;17.23;87.61;100103.16;10392362;28;19929;-63
2022/06/06 03:25:57;;;;;;;;;;;;;;;17.22;87.73;100106.88;10393413;28;19936;-63
2022/06/06 03:31:04;;;;;;;;;;;;;;;17.19;88.22;100106.34;10393092;28;19956;-64
2022/06/06 03:36:09;;;;;;;;;;;;;;;17.21;88.06;100110.56;10395549;28;19931;-64
2022/06/06 03:41:18;;;;;;;;;;;;;;;17.27;87.52;100112.56;10389383;28;19935;-64
2022/06/06 03:46:19;;;;;;;;;;;;;;;17.26;87.18;100112.75;10393984;28;19939;-63
2022/06/06 03:51:32;;;;;;;;;;;;;;;17.26;87.42;100127.06;10394550;28;19954;-62
2022/06/06 03:56:33;;;;;;;;;;;;;;;17.31;87.06;100143.50;10393271;28;19929;-64
2022/06/06 04:01:37;;;;;;;;;;;;;;;17.37;86.76;100146.50;10393675;28;20027;-63
2022/06/06 04:06:38;;;;;;;;;;;;;;;17.29;87.30;100139.28;10391000;28;19928;-63
2022/06/06 04:11:57;;;;;;;;;;;;;;;17.38;86.25;100142.81;10399142;28;20015;-63
2022/06/06 04:17:06;;;;;;;;;;;;;;;17.54;86.17;100153.56;10390338;28;19935;-63
2022/06/06 04:22:26;;;;;;;;;;;;;;;17.66;85.07;100157.56;10391283;28;19925;-63
2022/06/06 04:27:38;;;;;;;;;;;;;;;17.78;84.08;100159.91;10391016;28;19933;-65
2022/06/06 04:32:40;;;;;;;;;;;;;;;17.81;84.10;100154.16;10390245;28;19931;-63
2022/06/06 04:37:57;;;;;;;;;;;;;;;17.82;84.33;100162.06;10389866;28;20012;-64
2022/06/06 04:43:03;;;;;;;;;;;;;;;17.79;84.09;100166.94;10387504;28;19975;-63
2022/06/06 04:48:05;;;;;;;;;;;;;;;17.80;84.31;100165.94;10389133;28;19935;-63
2022/06/06 04:53:08;;;;;;;;;;;;;;;17.85;84.55;100161.72;10394534;28;20698;-64
2022/06/06 04:58:11;;;;;;;;;;;;;;;17.77;84.07;100161.72;10395339;28;20016;-64
2022/06/06 05:03:13;;;;;;;;;;;;;;;17.70;84.47;100173.38;10397698;28;20055;-64
2022/06/06 05:08:21;;;;;;;;;;;;;;;17.87;84.76;100158.84;10406459;28;19929;-64
2022/06/06 05:13:33;;;;;;;;;;;;;;;17.94;83.02;100138.34;10371214;28;19929;-63
2022/06/06 05:18:49;;;;;;;;;;;;;;;18.19;82.34;100159.75;10390684;28;20117;-63
2022/06/06 05:24:09;;;;;;;;;;;;;;;18.19;81.77;100159.75;10398173;28;19937;-62
2022/06/06 05:29:11;;;;;;;;;;;;;;;18.19;81.38;100163.31;10398903;28;19945;-64
2022/06/06 05:34:12;;;;;;;;;;;;;;;18.22;81.20;100167.50;10395187;28;19929;-62
2022/06/06 05:39:19;;;;;;;;;;;;;;;18.39;80.91;100160.19;10396521;28;19940;-63
2022/06/06 05:44:30;;;;;;;;;;;;;;;18.50;80.38;100161.63;10393434;28;19929;-64
2022/06/06 05:49:44;;;;;;;;;;;;;;;18.58;79.59;100166.97;10395971;28;20474;-63
2022/06/06 05:55:02;;;;;;;;;;;;;;;18.79;79.30;100165.50;10394689;28;19925;-62
2022/06/06 06:00:22;;;;;;;;;;;;;;;18.83;78.65;100169.50;10390883;28;20295;-64
2022/06/06 06:05:29;;;;;;;;;;;;;;;19.03;77.31;100169.88;10392975;28;19933;-63
2022/06/06 06:10:38;;;;;;;;;;;;;;;19.06;75.89;100178.44;10396677;28;19932;-63
2022/06/06 06:15:40;;;;;;;;;;;;;;;19.26;75.84;100177.97;10391417;28;20000;-64
2022/06/06 06:20:48;;;;;;;;;;;;;;;19.47;74.41;100182.66;10396061;28;19932;-62
2022/06/06 06:25:49;;;;;;;;;;;;;;;19.55;73.49;100185.28;10349632;28;20014;-65
2022/06/06 06:31:09;;;;;;;;;;;;;;;19.73;72.51;100184.91;10345200;28;19929;-63
2022/06/06 06:36:29;;;;;;;;;;;;;;;19.76;70.08;100192.66;10383523;28;20370;-64
2022/06/06 06:41:44;;;;;;;;;;;;;;;19.82;70.06;100195.69;10351474;28;20597;-61
2022/06/06 06:46:55;;;;;;;;;;;;;;;19.94;70.75;100203.13;10349794;28;19933;-61
2022/06/06 06:52:00;;;;;;;;;;;;;;;20.17;68.95;100209.47;10350993;28;19952;-62
2022/06/06 06:57:01;;;;;;;;;;;;;;;20.11;69.14;100216.44;10351737;28;19929;-61
2022/06/06 07:13:14;;;;;;;;;;;;;;;19.81;69.43;100212.91;10341734;28;20103;-61
2022/06/06 07:18:17;;;;;;;;;;;;;;;19.69;69.42;100205.22;10346684;28;19987;-60
2022/06/06 07:23:18;;;;;;;;;;;;;;;19.84;68.13;100205.25;10358050;28;19940;-61
2022/06/06 07:28:22;;;;;;;;;;;;;;;19.85;68.60;100208.81;10382403;28;19956;-61
2022/06/06 07:33:32;;;;;;;;;;;;;;;19.98;68.21;100211.69;10360205;28;19933;-61
2022/06/06 07:38:46;;;;;;;;;;;;;;;20.44;66.77;100206.06;10393994;28;20358;-62
2022/06/06 07:44:05;;;;;;;;;;;;;;;20.69;66.10;100197.66;10398506;28;19932;-62
2022/06/06 07:49:13;;;;;;;;;;;;;;;21.01;64.08;100190.88;10390441;28;19933;-61
2022/06/06 07:54:26;;;;;;;;;;;;;;;20.64;64.22;100186.53;10391249;28;20315;-63
2022/06/06 07:59:38;;;;;;;;;;;;;;;20.49;64.63;100184.72;10421160;28;20094;-62
2022/06/06 08:04:55;;;;;;;;;;;;;;;20.59;63.93;100175.44;10332324;28;19933;-62
2022/06/06 08:10:12;;;;;;;;;;;;;;;20.62;63.78;100177.78;10343888;28;20016;-61
2022/06/06 08:15:20;;;;;;;;;;;;;;;20.38;64.09;100190.59;10345879;28;19975;-64
2022/06/06 08:20:27;;;;;;;;;;;;;;;20.28;62.81;100184.66;10346171;28;20039;-61
2022/06/06 08:25:29;;;;;;;;;;;;;;;20.22;63.36;100190.81;10388699;28;20018;-61
2022/06/06 08:30:32;;;;;;;;;;;;;;;20.23;63.81;100189.78;10384561;28;20346;-61
2022/06/06 08:35:40;;;;;;;;;;;;;;;20.43;63.56;100193.59;10388081;28;19939;-62
2022/06/06 08:40:51;;;;;;;;;;;;;;;20.55;63.75;100195.78;10384283;28;20315;-61
2022/06/06 08:46:11;;;;;;;;;;;;;;;20.50;61.63;100209.88;10392333;28;20367;-63
2022/06/06 08:51:22;;;;;;;;;;;;;;;20.43;61.79;100200.84;10430652;28;20681;-62
2022/06/06 08:56:28;;;;;;;;;;;;;;;20.42;62.49;100196.47;10400190;28;20023;-63
2022/06/06 09:01:39;;;;;;;;;;;;;;;20.62;62.33;100194.00;10409516;28;20012;-61
2022/06/06 09:07:15;;;;;;;;;;;;;;;21.09;63.14;100176.41;10384352;28;20529;-62
2022/06/06 09:12:32;;;;;;;;;;;;;;;21.39;61.66;100165.41;10385305;28;19932;-62
2022/06/06 09:17:54;;;;;;;;;;;;;;;21.43;60.74;100158.56;10388026;28;20391;-62
2022/06/06 09:22:57;;;;;;;;;;;;;;;21.72;57.53;100170.22;10391682;28;19947;-61
2022/06/06 09:28:04;;;;;;;;;;;;;;;22.02;56.78;100175.41;10393306;28;19936;-61
2022/06/06 09:33:33;;;;;;;;;;;;;;;22.34;54.39;100182.06;10398509;28;20470;-62
2022/06/06 09:38:43;;;;;;;;;;;;;;;22.53;53.84;100187.75;10392522;28;19929;-61
2022/06/06 09:44:03;;;;;;;;;;;;;;;22.66;52.56;100176.13;10396859;28;20575;-62
2022/06/06 09:49:26;;;;;;;;;;;;;;;22.67;51.47;100177.78;10396378;28;19940;-63
2022/06/06 10:00:06;;;;;;;;;;;;;;;22.99;50.21;100173.47;10392255;28;19928;-64
2022/06/06 10:05:26;;;;;;;;;;;;;;;23.13;49.67;100177.03;10400823;28;19935;-61
2022/06/06 10:10:44;;;;;;;;;;;;;;;22.86;48.32;100193.25;10393480;28;19965;-61
2022/06/06 10:15:49;;;;;;;;;;;;;;;23.11;48.63;100179.13;10391695;28;19928;-61
2022/06/06 10:21:10;;;;;;;;;;;;;;;23.35;47.76;100177.69;10390603;28;20113;-61
2022/06/06 10:26:18;;;;;;;;;;;;;;;23.83;47.43;100160.28;10391985;28;19964;-62
2022/06/06 10:31:37;;;;;;;;;;;;;;;24.21;45.01;100159.53;10394079;28;19932;-61
2022/06/06 10:36:57;;;;;;;;;;;;;;;23.62;43.33;100137.72;10389682;28;20018;-62
2022/06/06 10:42:14;;;;;;;;;;;;;;;23.79;44.08;100151.69;10384504;28;19929;-65
2022/06/06 10:47:51;;;;;;;;;;;;;;;24.00;43.67;100150.63;10386109;28;20043;-63
2022/06/06 10:53:02;;;;;;;;;;;;;;;24.13;40.84;100143.47;10385893;28;19932;-62
2022/06/06 10:58:33;;;;;;;;;;;;;;;24.19;39.79;100137.16;10377928;28;20540;-62
2022/06/06 11:03:41;;;;;;;;;;;;;;;24.56;38.97;100140.13;10381427;28;19955;-61
2022/06/06 11:08:42;;;;;;;;;;;;;;;24.97;39.41;100136.09;10338691;28;20409;-63
2022/06/06 11:13:47;;;;;;;;;;;;;;;25.08;39.26;100133.72;10342073;28;19929;-64
2022/06/06 11:18:48;;;;;;;;;;;;;;;25.37;38.30;100135.78;10337625;28;20718;-64
2022/06/06 11:24:06;;;;;;;;;;;;;;;25.45;38.02;100128.41;10380562;28;27602;-62
2022/06/06 11:29:27;;;;;;;;;;;;;;;25.39;39.04;100128.22;10380169;28;19989;-62
2022/06/06 11:34:44;;;;;;;;;;;;;;;25.32;39.23;100119.28;10389033;28;19933;-64
2022/06/06 11:40:12;;;;;;;;;;;;;;;25.58;38.44;100103.72;10393875;28;19928;-62
2022/06/06 11:45:13;;;;;;;;;;;;;;;25.19;39.33;100098.44;10390302;28;19929;-63
2022/06/06 11:50:33;;;;;;;;;;;;;;;25.54;39.29;100095.16;10385596;28;19933;-62
2022/06/06 11:55:56;;;;;;;;;;;;;;;25.63;40.05;100092.97;10345302;28;19933;-64
2022/06/06 12:01:04;;;;;;;;;;;;;;;25.84;39.39;100066.31;10388609;28;19940;-63
2022/06/06 12:06:20;;;;;;;;;;;;;;;26.08;39.57;100079.03;10382049;28;19928;-62
2022/06/06 12:11:27;;;;;;;;;;;;;;;25.31;40.92;100067.75;10380953;28;19933;-61
2022/06/06 12:16:48;;;;;;;;;;;;;;;25.14;39.82;100057.41;10380840;28;19929;-62
2022/06/06 12:22:12;;;;;;;;;;;;;;;25.04;39.06;100063.38;10383529;28;20393;-64
2022/06/06 12:27:32;;;;;;;;;;;;;;;25.00;39.35;100056.69;10339945;28;19933;-64
2022/06/06 12:32:34;;;;;;;;;;;;;;;24.91;39.23;100041.72;10381287;28;19988;-64
2022/06/06 12:37:46;;;;;;;;;;;;;;;25.19;38.46;100043.09;10386888;28;20012;-64
2022/06/06 12:42:54;;;;;;;;;;;;;;;25.03;36.94;100039.91;10390530;28;19987;-63
2022/06/06 12:48:05;;;;;;;;;;;;;;;25.08;37.52;100030.25;10394110;28;20603;-62
2022/06/06 12:53:09;;;;;;;;;;;;;;;25.04;37.08;100041.59;10391896;28;19972;-63
2022/06/06 12:58:29;;;;;;;;;;;;;;;25.37;38.66;100029.56;10382123;28;19928;-64
2022/06/06 13:03:39;;;;;;;;;;;;;;;25.40;37.42;100040.00;10390127;28;19935;-63
2022/06/06 13:08:56;;;;;;;;;;;;;;;25.24;38.59;100026.94;10388404;28;19971;-63
2022/06/06 13:14:20;;;;;;;;;;;;;;;25.21;37.88;100014.59;10392556;28;19979;-63
2022/06/06 13:19:21;;;;;;;;;;;;;;;24.95;38.28;100010.25;10393060;28;20027;-62
2022/06/06 13:24:28;;;;;;;;;;;;;;;24.64;39.92;100009.28;10388198;28;20367;-62
2022/06/06 13:29:34;;;;;;;;;;;;;;;24.96;39.50;99998.28;10389564;28;20465;-64
2022/06/06 13:34:41;;;;;;;;;;;;;;;24.85;37.29;99999.06;10389062;28;20042;-62
2022/06/06 13:40:02;;;;;;;;;;;;;;;24.80;38.01;99982.53;10389652;28;19933;-63
2022/06/06 13:45:10;;;;;;;;;;;;;;;24.74;37.43;99999.75;10389778;28;19936;-63
2022/06/06 13:50:27;;;;;;;;;;;;;;;24.66;37.68;99990.81;10388635;28;19935;-62
2022/06/06 13:55:31;;;;;;;;;;;;;;;24.74;37.54;99984.28;10392292;28;19929;-64
2022/06/06 14:00:40;;;;;;;;;;;;;;;24.76;37.71;99997.69;10386227;28;19929;-62
2022/06/06 14:05:51;;;;;;;;;;;;;;;24.64;37.63;100001.09;10388430;28;19933;-64
2022/06/06 14:10:53;;;;;;;;;;;;;;;24.77;38.14;99991.16;10390750;28;19929;-64
2022/06/06 14:15:56;;;;;;;;;;;;;;;24.68;38.43;99998.75;10387422;28;20051;-63
2022/06/06 14:21:00;;;;;;;;;;;;;;;24.68;37.33;99988.72;10388308;28;19959;-62
2022/06/06 14:26:04;;;;;;;;;;;;;;;24.47;36.16;99983.63;10387206;28;19991;-62
2022/06/06 14:31:22;;;;;;;;;;;;;;;24.39;35.58;99973.88;10388399;28;20023;-64
2022/06/06 14:36:27;;;;;;;;;;;;;;;24.66;35.15;99974.50;10388897;28;19925;-64
2022/06/06 14:41:39;;;;;;;;;;;;;;;24.76;34.78;99978.63;10386731;28;19940;-62
2022/06/06 14:46:45;;;;;;;;;;;;;;;24.78;34.47;99976.50;10387510;28;19966;-62
2022/06/06 14:51:47;;;;;;;;;;;;;;;24.76;35.71;99978.63;10385419;28;20004;-62
2022/06/06 14:56:53;;;;;;;;;;;;;;;24.49;37.88;99951.63;10385513;28;20028;-68
2022/06/06 15:02:08;;;;;;;;;;;;;;;24.47;39.44;100008.97;10385428;28;20470;-62
2022/06/06 15:07:11;;;;;;;;;;;;;;;24.55;39.82;100005.13;10390863;28;20042;-62
2022/06/06 15:12:24;;;;;;;;;;;;;;;24.30;40.13;99996.94;10389919;28;20035;-62
2022/06/06 15:17:28;;;;;;;;;;;;;;;24.11;41.39;100004.19;10387328;28;20007;-63
2022/06/06 15:22:32;;;;;;;;;;;;;;;24.16;41.39;100013.34;10388496;28;19929;-63
2022/06/06 15:27:42;;;;;;;;;;;;;;;24.20;41.95;100008.31;10384203;28;19926;-63
2022/06/06 15:32:44;;;;;;;;;;;;;;;24.56;41.66;100017.69;10384470;28;26043;-61
2022/06/06 15:38:09;;;;;;;;;;;;;;;24.43;41.54;100007.72;10384191;28;20027;-63
2022/06/06 15:43:17;;;;;;;;;;;;;;;24.61;41.42;99996.13;10415211;28;19929;-62
2022/06/06 15:48:41;;;;;;;;;;;;;;;24.26;42.08;99985.69;10386579;28;20594;-65
2022/06/06 15:53:54;;;;;;;;;;;;;;;24.20;41.72;99991.16;10380766;28;19928;-63
2022/06/06 15:59:02;;;;;;;;;;;;;;;24.21;41.78;99987.41;10382249;28;19935;-64
2022/06/06 16:04:13;;;;;;;;;;;;;;;24.11;41.61;99983.28;10380416;28;20500;-66
2022/06/06 16:09:25;;;;;;;;;;;;;;;24.12;41.56;99975.94;10388065;28;20023;-63
2022/06/06 16:14:42;;;;;;;;;;;;;;;24.31;39.68;99963.28;10386984;28;19968;-62
2022/06/06 16:19:46;;;;;;;;;;;;;;;24.46;38.54;99979.25;10383667;28;19929;-61
2022/06/06 16:25:06;;;;;;;;;;;;;;;24.44;37.37;99981.34;10387028;28;20024;-62
2022/06/06 16:30:16;;;;;;;;;;;;;;;24.36;36.45;99968.88;10381835;28;20083;-62
2022/06/06 16:35:32;;;;;;;;;;;;;;;24.21;37.63;99971.91;10389526;28;19929;-61
2022/06/06 16:40:46;;;;;;;;;;;;;;;24.07;37.55;99970.34;10385391;28;20688;-62
2022/06/06 16:51:20;;;;;;;;;;;;;;;23.60;38.24;99965.97;10381021;28;20614;-63
2022/06/06 16:56:35;;;;;;;;;;;;;;;23.44;38.56;99964.56;10376535;28;19929;-63
2022/06/06 17:01:41;;;;;;;;;;;;;;;23.68;37.69;99972.22;10380424;28;19948;-62
2022/06/06 17:12:24;;;;;;;;;;;;;;;23.74;35.08;99963.19;10394373;28;19933;-62
2022/06/06 17:17:26;;;;;;;;;;;;;;;23.72;34.55;99968.00;10387861;28;19929;-62
2022/06/06 17:22:31;;;;;;;;;;;;;;;23.65;34.42;99968.03;10384667;28;19929;-63
2022/06/06 17:27:48;;;;;;;;;;;;;;;23.52;33.81;99962.66;10389202;28;20168;-62
2022/06/06 17:32:54;;;;;;;;;;;;;;;23.40;33.92;99960.59;10425529;28;19928;-62
2022/06/06 17:38:13;;;;;;;;;;;;;;;23.33;34.36;99959.81;10391803;28;20608;-62
2022/06/06 17:43:20;;;;;;;;;;;;;;;23.33;34.35;99958.97;10392298;28;19932;-62
2022/06/06 17:48:44;;;;;;;;;;;;;;;23.26;34.49;99965.25;10391555;28;19933;-62
2022/06/06 17:54:06;;;;;;;;;;;;;;;23.22;34.52;99964.00;10395203;28;20241;-63
2022/06/06 17:59:27;;;;;;;;;;;;;;;23.18;34.08;99965.50;10394531;28;19929;-62
2022/06/06 18:04:50;;;;;;;;;;;;;;;23.07;35.17;99964.22;10390136;28;20009;-63
2022/06/06 18:09:51;;;;;;;;;;;;;;;22.99;35.38;99963.66;10392205;28;20023;-61
2022/06/06 18:15:08;;;;;;;;;;;;;;;22.91;35.58;99968.25;10397892;28;19939;-61
2022/06/06 18:20:39;;;;;;;;;;;;;;;22.90;36.20;99972.00;10390996;28;20446;-62
2022/06/06 18:25:45;;;;;;;;;;;;;;;22.68;37.08;99965.97;10394931;28;20315;-62
2022/06/06 18:30:49;;;;;;;;;;;;;;;22.80;36.91;99977.03;10401843;28;20296;-63
2022/06/06 18:35:51;;;;;;;;;;;;;;;22.62;37.37;99968.69;10392495;28;20023;-64
2022/06/06 18:40:58;;;;;;;;;;;;;;;22.53;37.09;99974.34;10400385;28;21729;-62
2022/06/06 18:46:11;;;;;;;;;;;;;;;22.26;37.28;99981.56;10428156;28;19994;-62
2022/06/06 18:51:17;;;;;;;;;;;;;;;22.28;37.68;99979.50;10393566;28;20292;-63
2022/06/06 18:56:21;;;;;;;;;;;;;;;22.27;37.50;99987.84;10387125;28;19990;-62
2022/06/06 19:01:23;;;;;;;;;;;;;;;22.31;37.67;99987.25;10387739;28;19939;-62
2022/06/06 19:06:24;;;;;;;;;;;;;;;22.23;36.60;99987.41;10386329;28;19972;-64
2022/06/06 19:11:27;;;;;;;;;;;;;;;22.02;35.60;99958.63;10384513;28;19929;-62
2022/06/06 19:16:37;;;;;;;;;;;;;;;22.16;35.81;100000.97;10385294;28;19932;-62
2022/06/06 19:21:41;;;;;;;;;;;;;;;22.05;35.43;99998.84;10382182;28;19928;-62
2022/06/06 19:26:44;;;;;;;;;;;;;;;22.01;36.22;100003.03;10385703;28;19929;-63
2022/06/06 19:31:57;;;;;;;;;;;;;;;21.96;35.91;100000.09;10381218;28;20001;-61
2022/06/06 19:37:23;;;;;;;;;;;;;;;21.96;35.52;100002.78;10387050;28;20031;-63
2022/06/06 19:42:27;;;;;;;;;;;;;;;21.87;35.93;100007.56;10383605;28;19932;-62
2022/06/06 19:47:31;;;;;;;;;;;;;;;21.84;36.91;100008.81;10385433;28;20752;-61
2022/06/06 19:52:35;;;;;;;;;;;;;;;21.86;36.96;100014.84;10385551;28;19928;-64
2022/06/06 19:57:38;;;;;;;;;;;;;;;21.76;36.62;100027.13;10383705;28;19932;-63
2022/06/06 20:02:44;;;;;;;;;;;;;;;21.65;37.52;100029.38;10383991;28;19950;-62
2022/06/06 20:07:45;;;;;;;;;;;;;;;21.58;38.01;100038.50;10385362;28;20395;-63
2022/06/06 20:12:49;;;;;;;;;;;;;;;21.52;38.59;100029.31;10389281;28;19933;-61
2022/06/06 20:17:52;;;;;;;;;;;;;;;21.44;38.72;100032.13;10386945;28;19992;-63
2022/06/06 20:22:53;;;;;;;;;;;;;;;21.33;38.85;100034.38;10385195;28;20395;-63
2022/06/06 20:28:05;;;;;;;;;;;;;;;21.32;39.02;100040.84;10389829;28;19932;-62
2022/06/06 20:33:10;;;;;;;;;;;;;;;21.27;39.11;100037.03;10381161;28;19932;-65
2022/06/06 20:38:16;;;;;;;;;;;;;;;21.13;39.54;100031.53;10390014;28;19936;-63
2022/06/06 20:43:28;;;;;;;;;;;;;;;21.14;39.68;100035.09;10390556;28;19928;-62
2022/06/06 20:48:41;;;;;;;;;;;;;;;21.07;40.31;100032.34;10396740;28;20486;-63
2022/06/06 20:53:47;;;;;;;;;;;;;;;21.06;40.03;100041.47;10384582;28;19924;-61
2022/06/06 20:58:48;;;;;;;;;;;;;;;20.95;40.43;100050.16;10391697;28;19933;-62
2022/06/06 21:03:49;;;;;;;;;;;;;;;20.96;40.57;100051.84;10394708;28;19929;-62
2022/06/06 21:08:57;;;;;;;;;;;;;;;20.92;40.45;100058.66;10398814;28;20075;-62
2022/06/06 21:14:00;;;;;;;;;;;;;;;20.86;40.91;100056.75;10400251;28;19932;-62
2022/06/06 21:19:02;;;;;;;;;;;;;;;20.73;40.96;100043.94;10399413;28;20293;-62
2022/06/06 21:24:08;;;;;;;;;;;;;;;20.63;41.02;100057.78;10397841;28;21389;-62
2022/06/06 21:29:09;;;;;;;;;;;;;;;20.62;41.09;100050.69;10420549;28;19929;-62
2022/06/06 21:34:11;;;;;;;;;;;;;;;20.56;41.72;100046.88;10407279;28;19980;-62
2022/06/06 21:39:13;;;;;;;;;;;;;;;20.55;41.93;100049.78;10397834;28;19932;-61
2022/06/06 21:44:14;;;;;;;;;;;;;;;20.42;42.42;100048.63;10398050;28;20687;-62
2022/06/06 21:49:15;;;;;;;;;;;;;;;20.40;42.44;100045.28;10395581;28;19925;-62
2022/06/06 21:54:18;;;;;;;;;;;;;;;20.33;42.58;100041.69;10392478;28;19935;-63
2022/06/06 21:59:21;;;;;;;;;;;;;;;20.24;43.37;100046.38;10392067;28;20628;-62
2022/06/06 22:04:23;;;;;;;;;;;;;;;20.20;43.67;100046.94;10391723;28;19936;-61
2022/06/06 22:09:26;;;;;;;;;;;;;;;20.16;44.24;100051.06;10395910;28;19932;-67
2022/06/06 22:14:30;;;;;;;;;;;;;;;20.13;43.72;100042.31;10393028;28;20059;-63
2022/06/06 22:19:32;;;;;;;;;;;;;;;20.07;43.87;100042.22;10391525;28;20019;-62
2022/06/06 22:24:53;;;;;;;;;;;;;;;20.03;44.21;100036.38;10390822;28;19935;-63
2022/06/06 22:29:55;;;;;;;;;;;;;;;19.96;44.69;100041.69;10394163;28;19929;-62
2022/06/06 22:34:57;;;;;;;;;;;;;;;19.97;44.57;100039.84;10382376;28;19935;-62
2022/06/06 22:39:59;;;;;;;;;;;;;;;19.89;44.59;100043.50;10392792;28;19933;-63
2022/06/06 22:45:00;;;;;;;;;;;;;;;19.82;45.68;100039.88;10392101;28;19933;-62
2022/06/06 22:50:01;;;;;;;;;;;;;;;19.78;45.73;100047.50;10390582;28;19929;-62
2022/06/06 22:55:04;;;;;;;;;;;;;;;19.77;45.71;100048.53;10389380;28;19929;-63
2022/06/06 23:00:06;;;;;;;;;;;;;;;19.72;46.12;100050.09;10388054;28;19928;-63
2022/06/06 23:05:07;;;;;;;;;;;;;;;19.68;46.11;100044.25;10394766;28;19925;-65
2022/06/06 23:10:09;;;;;;;;;;;;;;;19.61;45.67;100037.91;10403923;28;19952;-64
2022/06/06 23:15:11;;;;;;;;;;;;;;;19.57;46.91;100036.59;10394135;28;19924;-61
2022/06/06 23:20:12;;;;;;;;;;;;;;;19.57;46.56;100039.31;10393362;28;19932;-61
2022/06/06 23:25:14;;;;;;;;;;;;;;;19.49;47.13;100034.84;10391829;28;20019;-62
2022/06/06 23:30:15;;;;;;;;;;;;;;;19.46;46.60;100037.09;10390146;28;20335;-62
2022/06/06 23:35:17;;;;;;;;;;;;;;;19.40;47.35;100026.00;10389346;28;19935;-62
2022/06/06 23:40:20;;;;;;;;;;;;;;;19.35;47.57;100036.53;10392321;28;19994;-61
2022/06/06 23:50:46;;;;;;;;;;;;;;;19.27;47.40;100038.50;10394241;28;20322;-62
2022/06/06 23:55:48;;;;;;;;;;;;;;;19.03;48.21;99992.69;10388888;28;20009;-61
